createdAt,value
2019-01-17T00:01:30.389Z,3.18
2019-01-17T00:04:20.703Z,3.26
2019-01-17T00:07:10.909Z,3.08
2019-01-17T00:09:48.828Z,3.25
2019-01-17T00:12:37.564Z,3.24
2019-01-17T00:15:25.835Z,3.06
2019-01-17T00:18:19.010Z,2.79
2019-01-17T00:21:07.926Z,2.58
2019-01-17T00:24:02.440Z,2.31
2019-01-17T00:26:39.221Z,2.26
2019-01-17T00:29:29.372Z,2.17
2019-01-17T00:32:26.011Z,2.20
2019-01-17T00:35:24.929Z,2.15
2019-01-17T00:38:13.571Z,1.94
2019-01-17T00:40:55.599Z,2.08
2019-01-17T00:43:45.908Z,1.97
2019-01-17T00:46:33.115Z,2.05
2019-01-17T00:49:17.153Z,2.00
2019-01-17T00:52:10.239Z,1.86
2019-01-17T00:55:10.346Z,1.80
2019-01-17T00:57:48.550Z,1.76
2019-01-17T01:00:50.892Z,2.18
2019-01-17T01:03:31.691Z,2.34
2019-01-17T01:06:34.271Z,2.41
2019-01-17T01:09:44.866Z,2.53
2019-01-17T01:12:36.157Z,2.48
2019-01-17T01:15:29.731Z,2.74
2019-01-17T01:18:28.735Z,2.69
2019-01-17T01:21:17.965Z,2.47
2019-01-17T01:24:15.417Z,2.48
2019-01-17T01:27:12.190Z,2.39
2019-01-17T01:30:00.938Z,2.42
2019-01-17T01:33:06.165Z,2.22
2019-01-17T01:36:11.320Z,1.97
2019-01-17T01:38:53.843Z,1.93
2019-01-17T01:41:40.956Z,1.84
2019-01-17T01:44:33.630Z,1.87
2019-01-17T01:47:32.878Z,1.65
2019-01-17T01:50:21.764Z,1.59
2019-01-17T01:53:11.805Z,1.39
2019-01-17T01:55:42.936Z,1.56
2019-01-17T01:58:14.008Z,1.77
2019-01-17T02:00:45.153Z,1.82
2019-01-17T02:03:16.133Z,1.69
2019-01-17T02:05:47.203Z,1.65
2019-01-17T02:08:18.337Z,1.53
2019-01-17T02:10:49.432Z,1.49
2019-01-17T02:13:20.586Z,1.60
2019-01-17T02:15:51.802Z,1.57
2019-01-17T02:18:22.778Z,1.94
2019-01-17T02:20:54.061Z,2.33
2019-01-17T02:23:25.157Z,2.60
2019-01-17T02:25:56.478Z,2.58
2019-01-17T02:28:27.647Z,2.94
2019-01-17T02:30:58.795Z,3.15
2019-01-17T02:33:29.924Z,3.22
2019-01-17T02:36:01.238Z,3.09
2019-01-17T02:38:32.348Z,3.20
2019-01-17T02:41:03.484Z,3.39
2019-01-17T02:43:34.596Z,3.30
2019-01-17T02:46:05.847Z,3.70
2019-01-17T02:48:36.931Z,3.69
2019-01-17T02:51:08.101Z,3.97
2019-01-17T02:53:39.235Z,4.05
2019-01-17T02:56:10.378Z,4.30
2019-01-17T02:58:41.576Z,4.16
2019-01-17T03:01:12.674Z,4.24
2019-01-17T03:03:43.715Z,4.14
2019-01-17T03:06:14.914Z,4.31
2019-01-17T03:08:46.102Z,4.53
2019-01-17T03:11:17.224Z,4.51
2019-01-17T03:13:48.353Z,4.48
2019-01-17T03:16:19.651Z,4.52
2019-01-17T03:18:50.766Z,4.58
2019-01-17T03:21:21.765Z,4.73
2019-01-17T03:23:53.482Z,4.68
2019-01-17T03:26:24.611Z,4.99
2019-01-17T03:28:55.715Z,4.98
2019-01-17T03:31:26.796Z,4.92
2019-01-17T03:33:57.891Z,4.96
2019-01-17T03:36:29.042Z,4.86
2019-01-17T03:39:00.434Z,4.76
2019-01-17T03:41:33.246Z,4.71
2019-01-17T03:44:04.419Z,4.92
2019-01-17T03:46:35.785Z,4.83
2019-01-17T03:49:06.998Z,4.79
2019-01-17T03:51:38.056Z,4.70
2019-01-17T03:54:09.147Z,4.86
2019-01-17T03:56:40.279Z,4.84
2019-01-17T03:59:11.387Z,4.86
2019-01-17T04:01:42.895Z,4.83
2019-01-17T04:04:14.022Z,4.77
2019-01-17T04:06:45.175Z,4.80
2019-01-17T04:09:16.279Z,4.88
2019-01-17T04:11:47.415Z,4.81
2019-01-17T04:14:19.435Z,5.00
2019-01-17T04:16:50.570Z,4.92
2019-01-17T04:19:21.653Z,4.84
2019-01-17T04:21:52.738Z,4.93
2019-01-17T04:24:23.892Z,4.84
2019-01-17T04:26:55.075Z,4.91
2019-01-17T04:29:26.227Z,4.90
2019-01-17T04:31:57.295Z,5.03
2019-01-17T04:34:28.423Z,4.91
2019-01-17T04:36:59.612Z,4.93
2019-01-17T04:39:31.647Z,5.00
2019-01-17T04:42:02.770Z,5.04
2019-01-17T04:44:33.903Z,4.81
2019-01-17T04:47:04.991Z,4.84
2019-01-17T04:49:36.009Z,4.79
2019-01-17T04:52:07.247Z,4.77
2019-01-17T04:54:38.569Z,4.85
2019-01-17T04:57:09.727Z,4.89
2019-01-17T04:59:40.848Z,4.84
2019-01-17T05:02:11.977Z,4.71
2019-01-17T05:04:43.171Z,4.83
2019-01-17T05:07:14.246Z,4.80
2019-01-17T05:09:45.440Z,4.85
2019-01-17T05:12:16.567Z,4.73
2019-01-17T05:14:47.750Z,4.79
2019-01-17T05:17:18.977Z,4.86
2019-01-17T05:19:50.122Z,4.73
2019-01-17T05:22:21.370Z,4.84
2019-01-17T05:24:52.617Z,4.85
2019-01-17T05:27:23.825Z,4.86
2019-01-17T05:29:54.830Z,4.80
2019-01-17T05:32:26.030Z,4.74
2019-01-17T05:34:57.015Z,4.86
2019-01-17T05:37:28.110Z,4.87
2019-01-17T05:39:59.240Z,4.66
2019-01-17T05:42:30.216Z,4.73
2019-01-17T05:45:01.264Z,4.55
2019-01-17T05:47:32.503Z,4.56
2019-01-17T05:50:04.367Z,4.47
2019-01-17T05:52:35.607Z,4.52
2019-01-17T05:55:07.081Z,4.58
2019-01-17T05:57:38.298Z,4.63
2019-01-17T06:00:14.999Z,4.76
2019-01-17T06:02:46.210Z,4.75
2019-01-17T06:05:18.207Z,4.65
2019-01-17T06:07:49.431Z,4.81
2019-01-17T06:10:20.637Z,4.64
2019-01-17T06:12:52.857Z,4.57
2019-01-17T06:15:24.838Z,4.73
2019-01-17T06:17:55.990Z,4.52
2019-01-17T06:20:28.239Z,4.68
2019-01-17T06:22:59.310Z,4.61
2019-01-17T06:25:30.396Z,4.58
2019-01-17T06:28:02.503Z,4.58
2019-01-17T06:30:33.662Z,4.54
2019-01-17T06:33:04.816Z,4.57
2019-01-17T06:35:35.802Z,4.47
2019-01-17T06:38:07.064Z,4.58
2019-01-17T06:40:38.197Z,4.64
2019-01-17T06:43:09.223Z,4.55
2019-01-17T06:45:40.380Z,4.37
2019-01-17T06:48:11.613Z,4.58
2019-01-17T06:50:42.688Z,4.55
2019-01-17T06:53:13.899Z,4.61
2019-01-17T06:55:45.063Z,4.64
2019-01-17T06:58:16.179Z,4.38
2019-01-17T07:00:47.313Z,4.51
2019-01-17T07:03:18.626Z,4.47
2019-01-17T07:05:49.834Z,4.37
2019-01-17T07:08:20.970Z,4.25
2019-01-17T07:10:52.065Z,4.18
2019-01-17T07:13:23.199Z,4.34
2019-01-17T07:15:54.220Z,4.21
2019-01-17T07:18:25.292Z,4.44
2019-01-17T07:20:56.587Z,4.45
2019-01-17T07:23:27.725Z,4.39
2019-01-17T07:25:58.992Z,4.44
2019-01-17T07:28:30.219Z,4.42
2019-01-17T07:31:01.370Z,4.36
2019-01-17T07:33:32.446Z,4.38
2019-01-17T07:36:03.577Z,4.42
2019-01-17T07:38:34.735Z,4.61
2019-01-17T07:41:05.891Z,4.59
2019-01-17T07:43:37.079Z,4.63
2019-01-17T07:46:08.241Z,4.54
2019-01-17T07:48:39.530Z,4.56
2019-01-17T07:51:10.658Z,4.65
2019-01-17T07:53:41.732Z,4.90
2019-01-17T07:56:12.815Z,4.99
2019-01-17T07:58:43.963Z,5.11
2019-01-17T08:01:15.190Z,5.17
2019-01-17T08:03:46.417Z,5.29
2019-01-17T08:06:17.569Z,5.57
2019-01-17T08:08:48.738Z,5.48
2019-01-17T08:11:19.934Z,5.61
2019-01-17T08:13:51.108Z,5.74
2019-01-17T08:16:22.167Z,5.83
2019-01-17T08:18:53.232Z,5.81
2019-01-17T08:21:26.060Z,5.82
2019-01-17T08:23:57.359Z,5.83
2019-01-17T08:26:28.581Z,5.91
2019-01-17T08:28:59.688Z,6.08
2019-01-17T08:31:30.864Z,6.19
2019-01-17T08:34:02.049Z,6.31
2019-01-17T08:36:33.247Z,6.05
2019-01-17T08:39:07.688Z,6.26
2019-01-17T08:41:38.754Z,6.24
2019-01-17T08:44:09.954Z,6.42
2019-01-17T08:46:41.007Z,6.35
2019-01-17T08:49:12.161Z,6.45
2019-01-17T08:51:43.233Z,6.31
2019-01-17T08:54:14.321Z,6.44
2019-01-17T08:56:45.459Z,6.72
2019-01-17T08:59:16.736Z,6.81
2019-01-17T09:01:47.850Z,6.98
2019-01-17T09:04:19.031Z,7.08
2019-01-17T09:06:50.189Z,7.17
2019-01-17T09:09:21.368Z,7.65
2019-01-17T09:11:52.569Z,7.46
2019-01-17T09:14:23.862Z,7.39
2019-01-17T09:16:54.939Z,7.44
2019-01-17T09:19:27.610Z,7.44
2019-01-17T09:21:58.682Z,7.56
2019-01-17T09:24:29.934Z,7.43
2019-01-17T09:27:01.056Z,7.33
2019-01-17T09:29:32.038Z,7.41
2019-01-17T09:32:03.190Z,7.40
2019-01-17T09:34:34.439Z,7.42
2019-01-17T09:37:05.770Z,7.42
2019-01-17T09:39:36.900Z,7.45
2019-01-17T09:42:08.054Z,7.58
2019-01-17T09:44:39.293Z,7.54
2019-01-17T09:47:10.414Z,7.54
2019-01-17T09:49:41.474Z,7.56
2019-01-17T09:52:12.610Z,7.64
2019-01-17T09:54:43.797Z,7.59
2019-01-17T09:57:14.764Z,7.60
2019-01-17T09:59:45.901Z,7.64
2019-01-17T10:02:17.048Z,7.72
2019-01-17T10:04:48.134Z,7.72
2019-01-17T10:07:19.184Z,7.83
2019-01-17T10:09:50.182Z,7.78
2019-01-17T10:12:21.296Z,7.79
2019-01-17T10:14:52.369Z,7.98
2019-01-17T10:17:40.294Z,7.95
2019-01-17T10:21:01.551Z,7.87
2019-01-17T10:24:15.645Z,7.96
2019-01-17T10:27:18.643Z,7.85
2019-01-17T10:30:25.603Z,7.90
2019-01-17T10:33:39.903Z,7.95
2019-01-17T10:36:48.445Z,7.93
2019-01-17T10:39:51.419Z,7.88
2019-01-17T10:42:52.866Z,8.11
2019-01-17T10:46:04.314Z,8.04
2019-01-17T10:49:28.594Z,8.25
2019-01-17T10:52:29.667Z,8.57
2019-01-17T10:55:58.169Z,8.18
2019-01-17T10:58:35.864Z,8.64
2019-01-17T11:01:35.678Z,8.46
2019-01-17T11:04:51.188Z,8.94
2019-01-17T11:07:43.791Z,8.88
2019-01-17T11:10:46.808Z,9.43
2019-01-17T11:13:50.371Z,9.19
2019-01-17T11:17:08.902Z,8.55
2019-01-17T11:20:18.253Z,8.57
2019-01-17T11:23:11.672Z,9.06
2019-01-17T11:26:01.535Z,9.06
2019-01-17T11:29:13.859Z,8.52
2019-01-17T11:32:09.384Z,8.47
2019-01-17T11:35:09.595Z,8.65
2019-01-17T11:38:16.059Z,8.62
2019-01-17T11:41:18.756Z,8.71
2019-01-17T11:44:34.069Z,8.64
2019-01-17T11:47:43.056Z,8.44
2019-01-17T11:50:55.121Z,8.50
2019-01-17T11:53:56.016Z,8.47
2019-01-17T11:57:09.796Z,8.55
2019-01-17T12:00:22.032Z,8.31
2019-01-17T12:03:20.321Z,8.37
2019-01-17T12:05:51.451Z,8.21
2019-01-17T12:08:22.625Z,8.08
2019-01-17T12:10:53.821Z,8.23
2019-01-17T12:13:24.872Z,8.28
2019-01-17T12:15:56.193Z,8.40
2019-01-17T12:18:27.412Z,8.55
2019-01-17T12:20:58.624Z,8.17
2019-01-17T12:23:29.867Z,7.89
2019-01-17T12:26:01.116Z,8.03
2019-01-17T12:28:32.307Z,7.92
2019-01-17T12:31:03.585Z,8.30
2019-01-17T12:33:34.804Z,7.96
2019-01-17T12:36:06.071Z,7.95
2019-01-17T12:38:37.172Z,7.88
2019-01-17T12:41:08.278Z,8.09
2019-01-17T12:43:39.535Z,7.73
2019-01-17T12:46:10.653Z,7.76
2019-01-17T12:48:42.470Z,7.59
2019-01-17T12:51:13.584Z,7.66
2019-01-17T12:53:45.009Z,7.68
2019-01-17T12:56:16.034Z,7.66
2019-01-17T12:58:47.084Z,7.74
2019-01-17T13:01:18.317Z,7.72
2019-01-17T13:03:49.314Z,7.37
2019-01-17T13:06:20.468Z,7.37
2019-01-17T13:08:51.623Z,7.33
2019-01-17T13:11:22.759Z,7.27
2019-01-17T13:13:53.971Z,7.22
2019-01-17T13:16:25.104Z,7.08
2019-01-17T13:18:56.185Z,7.21
2019-01-17T13:21:27.346Z,7.00
2019-01-17T13:23:58.475Z,7.11
2019-01-17T13:26:29.629Z,7.09
2019-01-17T13:29:00.762Z,6.94
2019-01-17T13:31:31.843Z,6.81
2019-01-17T13:34:03.027Z,6.88
2019-01-17T13:36:40.143Z,6.73
2019-01-17T13:39:08.164Z,6.59
2019-01-17T13:41:39.349Z,6.65
2019-01-17T13:44:10.459Z,6.72
2019-01-17T13:46:41.708Z,6.73
2019-01-17T13:49:12.828Z,6.49
2019-01-17T13:51:43.970Z,6.48
2019-01-17T13:54:15.137Z,6.44
2019-01-17T13:56:46.245Z,6.39
2019-01-17T13:59:17.412Z,6.50
2019-01-17T14:01:48.729Z,6.46
2019-01-17T14:04:19.861Z,6.23
2019-01-17T14:06:50.985Z,6.38
2019-01-17T14:09:22.139Z,6.46
2019-01-17T14:11:53.311Z,6.47
2019-01-17T14:14:24.465Z,6.47
2019-01-17T14:16:55.604Z,6.52
2019-01-17T14:19:26.776Z,6.38
2019-01-17T14:21:57.976Z,6.61
2019-01-17T14:24:29.054Z,6.79
2019-01-17T14:27:01.199Z,6.43
2019-01-17T14:29:32.294Z,6.18
2019-01-17T14:32:03.500Z,6.31
2019-01-17T14:34:34.671Z,6.38
2019-01-17T14:37:05.813Z,6.25
2019-01-17T14:39:36.983Z,5.97
2019-01-17T14:42:09.084Z,5.96
2019-01-17T14:44:40.181Z,5.97
2019-01-17T14:47:11.288Z,5.98
2019-01-17T14:49:42.363Z,5.87
2019-01-17T14:52:13.586Z,5.89
2019-01-17T14:54:44.612Z,5.79
2019-01-17T14:57:20.656Z,5.76
2019-01-17T14:59:48.660Z,5.80
2019-01-17T15:02:19.730Z,5.91
2019-01-17T15:04:50.781Z,5.72
2019-01-17T15:07:22.067Z,5.76
2019-01-17T15:09:53.075Z,5.70
2019-01-17T15:12:24.148Z,5.64
2019-01-17T15:14:55.312Z,5.59
2019-01-17T15:17:26.366Z,5.56
2019-01-17T15:19:57.492Z,5.58
2019-01-17T15:22:28.482Z,5.56
2019-01-17T15:24:59.597Z,5.56
2019-01-17T15:27:30.569Z,5.56
2019-01-17T15:30:01.789Z,5.51
2019-01-17T15:32:32.857Z,5.58
2019-01-17T15:35:05.306Z,5.59
2019-01-17T15:37:36.366Z,5.71
2019-01-17T15:40:10.827Z,5.58
2019-01-17T15:42:41.965Z,5.50
2019-01-17T15:45:13.142Z,5.50
2019-01-17T15:47:44.223Z,5.36
2019-01-17T15:50:15.741Z,5.40
2019-01-17T15:52:46.836Z,5.43
2019-01-17T15:55:18.598Z,5.38
2019-01-17T15:57:50.742Z,5.21
2019-01-17T16:00:27.955Z,5.22
2019-01-17T16:02:59.095Z,5.17
2019-01-17T16:05:30.282Z,5.03
2019-01-17T16:08:01.457Z,5.08
2019-01-17T16:10:32.585Z,5.05
2019-01-17T16:13:03.580Z,5.03
2019-01-17T16:15:34.807Z,5.00
2019-01-17T16:18:06.029Z,5.10
2019-01-17T16:20:37.178Z,4.98
2019-01-17T16:23:09.428Z,4.92
2019-01-17T16:25:40.597Z,4.93
2019-01-17T16:28:11.790Z,4.90
2019-01-17T16:30:42.845Z,5.04
2019-01-17T16:33:13.851Z,4.89
2019-01-17T16:35:45.014Z,4.84
2019-01-17T16:38:16.159Z,4.85
2019-01-17T16:40:49.799Z,4.86
2019-01-17T16:43:21.047Z,4.88
2019-01-17T16:45:52.231Z,4.90
2019-01-17T16:48:23.439Z,4.92
2019-01-17T16:50:54.597Z,4.85
2019-01-17T16:53:25.681Z,4.90
2019-01-17T16:55:56.695Z,5.05
2019-01-17T16:58:27.755Z,5.06
2019-01-17T17:00:59.162Z,4.95
2019-01-17T17:03:30.293Z,4.87
2019-01-17T17:06:01.443Z,4.91
2019-01-17T17:08:32.523Z,4.89
2019-01-17T17:11:03.617Z,4.82
2019-01-17T17:13:34.659Z,4.78
2019-01-17T17:16:05.816Z,4.71
2019-01-17T17:18:36.872Z,4.74
2019-01-17T17:21:08.037Z,4.77
2019-01-17T17:23:39.040Z,4.67
2019-01-17T17:26:10.199Z,4.75
2019-01-17T17:28:41.496Z,4.74
2019-01-17T17:31:12.646Z,4.76
2019-01-17T17:33:43.723Z,4.67
2019-01-17T17:36:14.926Z,4.64
2019-01-17T17:38:46.046Z,4.66
2019-01-17T17:41:17.496Z,4.49
2019-01-17T17:43:48.542Z,4.56
2019-01-17T17:46:19.600Z,4.51
2019-01-17T17:48:50.656Z,4.45
2019-01-17T17:51:21.770Z,4.50
2019-01-17T17:53:52.782Z,4.94
2019-01-17T17:56:23.867Z,4.86
2019-01-17T17:58:54.926Z,4.71
2019-01-17T18:01:32.276Z,4.74
2019-01-17T18:04:03.607Z,4.43
2019-01-17T18:06:34.819Z,4.45
2019-01-17T18:09:08.772Z,4.39
2019-01-17T18:11:39.918Z,4.37
2019-01-17T18:14:11.128Z,4.34
2019-01-17T18:16:42.244Z,4.31
2019-01-17T18:19:14.232Z,4.34
2019-01-17T18:21:46.422Z,4.30
2019-01-17T18:24:17.534Z,4.32
2019-01-17T18:26:48.777Z,4.31
2019-01-17T18:29:19.820Z,4.36
2019-01-17T18:31:50.972Z,4.32
2019-01-17T18:34:22.108Z,4.39
2019-01-17T18:36:53.534Z,4.90
2019-01-17T18:39:24.594Z,4.87
2019-01-17T18:41:55.685Z,4.85
2019-01-17T18:44:26.755Z,4.90
2019-01-17T18:46:57.838Z,4.57
2019-01-17T18:49:28.960Z,4.47
2019-01-17T18:52:00.316Z,4.47
2019-01-17T18:54:31.400Z,4.29
2019-01-17T18:57:02.547Z,4.37
2019-01-17T18:59:33.665Z,4.24
2019-01-17T19:02:04.911Z,4.21
2019-01-17T19:04:36.031Z,4.19
2019-01-17T19:07:07.184Z,4.11
2019-01-17T19:09:38.271Z,4.15
2019-01-17T19:12:09.252Z,4.15
2019-01-17T19:14:40.370Z,4.13
2019-01-17T19:17:11.606Z,4.10
2019-01-17T19:19:42.666Z,4.15
2019-01-17T19:22:14.003Z,4.12
2019-01-17T19:24:45.105Z,4.10
2019-01-17T19:27:16.197Z,4.09
2019-01-17T19:29:50.202Z,4.12
2019-01-17T19:32:21.431Z,4.11
2019-01-17T19:34:52.545Z,4.06
2019-01-17T19:37:23.623Z,4.07
2019-01-17T19:39:54.747Z,4.08
2019-01-17T19:42:26.703Z,4.08
2019-01-17T19:44:58.043Z,3.90
2019-01-17T19:47:29.570Z,4.61
2019-01-17T19:50:00.716Z,4.17
2019-01-17T19:52:31.855Z,3.91
2019-01-17T19:55:02.983Z,4.01
2019-01-17T19:57:34.154Z,3.99
2019-01-17T20:00:07.766Z,3.88
2019-01-17T20:02:40.678Z,3.89
2019-01-17T20:05:13.836Z,3.84
2019-01-17T20:07:45.967Z,3.89
2019-01-17T20:10:24.829Z,3.95
2019-01-17T20:12:56.003Z,3.92
2019-01-17T20:15:27.129Z,3.80
2019-01-17T20:17:58.191Z,3.88
2019-01-17T20:20:31.948Z,3.84
2019-01-17T20:23:03.142Z,3.84
2019-01-17T20:25:34.258Z,3.83
2019-01-17T20:28:06.498Z,3.78
2019-01-17T20:30:38.215Z,3.87
2019-01-17T20:33:09.841Z,3.78
2019-01-17T20:35:40.963Z,3.88
2019-01-17T20:38:12.065Z,3.82
2019-01-17T20:40:43.181Z,3.75
2019-01-17T20:43:14.320Z,3.74
2019-01-17T20:45:45.392Z,3.78
2019-01-17T20:48:16.809Z,3.81
2019-01-17T20:50:47.954Z,3.79
2019-01-17T20:53:19.240Z,3.72
2019-01-17T20:55:50.370Z,3.71
2019-01-17T20:58:21.391Z,3.77
2019-01-17T21:01:32.652Z,3.72
2019-01-17T21:04:05.238Z,3.76
2019-01-17T21:06:36.275Z,3.64
2019-01-17T21:09:10.982Z,3.69
2019-01-17T21:11:42.268Z,3.60
2019-01-17T21:14:13.457Z,3.56
2019-01-17T21:16:44.579Z,3.53
2019-01-17T21:19:15.751Z,3.49
2019-01-17T21:21:46.855Z,3.50
2019-01-17T21:24:19.001Z,3.56
2019-01-17T21:26:50.145Z,3.57
2019-01-17T21:29:21.162Z,3.58
2019-01-17T21:31:52.285Z,3.54
2019-01-17T21:34:23.456Z,3.55
2019-01-17T21:36:54.459Z,3.58
2019-01-17T21:39:26.123Z,3.71
2019-01-17T21:41:57.186Z,3.73
2019-01-17T21:44:28.154Z,3.76
2019-01-17T21:46:59.287Z,3.62
2019-01-17T21:49:30.603Z,3.69
2019-01-17T21:52:01.697Z,3.53
2019-01-17T21:54:33.006Z,3.53
2019-01-17T21:57:04.240Z,3.57
2019-01-17T21:59:35.463Z,3.48
2019-01-17T22:02:06.596Z,3.30
2019-01-17T22:04:37.662Z,3.31
2019-01-17T22:07:08.703Z,3.29
2019-01-17T22:09:39.943Z,3.34
2019-01-17T22:12:11.074Z,3.28
2019-01-17T22:14:42.131Z,3.31
2019-01-17T22:17:13.172Z,3.24
2019-01-17T22:19:45.228Z,3.29
2019-01-17T22:22:16.435Z,3.34
2019-01-17T22:24:47.623Z,3.09
2019-01-17T22:27:19.942Z,3.33
2019-01-17T22:29:50.979Z,3.10
2019-01-17T22:32:22.224Z,2.81
2019-01-17T22:34:53.350Z,2.76
2019-01-17T22:37:24.452Z,2.89
2019-01-17T22:39:55.464Z,3.03
2019-01-17T22:42:26.586Z,2.79
2019-01-17T22:44:57.653Z,2.79
2019-01-17T22:47:28.809Z,2.78
2019-01-17T22:49:59.815Z,2.58
2019-01-17T22:52:30.793Z,2.58
2019-01-17T22:55:01.904Z,2.58
2019-01-17T22:57:32.951Z,2.51
2019-01-17T23:00:06.642Z,2.48
2019-01-17T23:02:37.623Z,2.54
2019-01-17T23:05:08.773Z,2.55
2019-01-17T23:07:40.891Z,2.61
2019-01-17T23:10:12.259Z,2.49
2019-01-17T23:12:43.422Z,2.63
2019-01-17T23:15:14.610Z,2.63
2019-01-17T23:17:45.670Z,2.77
2019-01-17T23:20:17.094Z,2.55
2019-01-17T23:22:48.211Z,2.44
2019-01-17T23:25:19.361Z,2.39
2019-01-17T23:27:50.491Z,2.35
2019-01-17T23:30:21.615Z,2.42
2019-01-17T23:32:52.602Z,2.48
2019-01-17T23:35:23.724Z,2.34
2019-01-17T23:37:54.766Z,2.17
2019-01-17T23:40:25.847Z,2.20
2019-01-17T23:42:56.913Z,2.06
2019-01-17T23:45:28.059Z,2.08
2019-01-17T23:47:59.335Z,2.10
2019-01-17T23:50:30.534Z,2.11
2019-01-17T23:53:01.785Z,2.20
2019-01-17T23:55:32.782Z,2.14
2019-01-17T23:58:03.981Z,2.23
